sensor_id;sensor_type;location;lat;lon;timestamp;pressure;altitude;pressure_sealevel;temperature;humidity
12475;BME280;6302;42.624;23.334;2024-03-22T00:02:14;93302.16;;;7.66;61.81
12475;BME280;6302;42.624;23.334;2024-03-22T00:04:41;93298.78;;;7.62;61.75
12475;BME280;6302;42.624;23.334;2024-03-22T00:07:06;93298.41;;;7.60;61.79
12475;BME280;6302;42.624;23.334;2024-03-22T00:09:33;93289.69;;;7.49;62.68
12475;BME280;6302;42.624;23.334;2024-03-22T00:11:59;93306.28;;;7.56;62.15
12475;BME280;6302;42.624;23.334;2024-03-22T00:14:26;93307.78;;;7.54;62.02
12475;BME280;6302;42.624;23.334;2024-03-22T00:16:51;93302.50;;;7.54;62.18
12475;BME280;6302;42.624;23.334;2024-03-22T00:19:19;93291.59;;;7.52;62.97
12475;BME280;6302;42.624;23.334;2024-03-22T00:21:45;93297.22;;;7.47;63.36
12475;BME280;6302;42.624;23.334;2024-03-22T00:24:12;93297.94;;;7.44;63.09
12475;BME280;6302;42.624;23.334;2024-03-22T00:26:38;93292.28;;;7.42;63.86
12475;BME280;6302;42.624;23.334;2024-03-22T00:29:04;93298.69;;;7.41;64.15
12475;BME280;6302;42.624;23.334;2024-03-22T00:31:30;93298.69;;;7.41;63.51
12475;BME280;6302;42.624;23.334;2024-03-22T00:33:57;93301.28;;;7.34;64.30
12475;BME280;6302;42.624;23.334;2024-03-22T00:36:24;93302.78;;;7.28;64.55
12475;BME280;6302;42.624;23.334;2024-03-22T00:38:51;93293.28;;;7.05;65.74
12475;BME280;6302;42.624;23.334;2024-03-22T00:41:16;93294.03;;;7.09;65.10
12475;BME280;6302;42.624;23.334;2024-03-22T00:43:43;93310.25;;;7.18;65.10
12475;BME280;6302;42.624;23.334;2024-03-22T00:46:09;93307.25;;;7.16;67.16
12475;BME280;6302;42.624;23.334;2024-03-22T00:48:36;93317.03;;;7.12;67.82
12475;BME280;6302;42.624;23.334;2024-03-22T00:51:01;93315.47;;;7.04;69.28
12475;BME280;6302;42.624;23.334;2024-03-22T00:53:30;93315.09;;;7.02;69.87
12475;BME280;6302;42.624;23.334;2024-03-22T00:55:56;93301.47;;;6.90;70.69
12475;BME280;6302;42.624;23.334;2024-03-22T00:58:25;93283.72;;;6.76;72.26
12475;BME280;6302;42.624;23.334;2024-03-22T01:00:51;93311.91;;;6.76;73.32
12475;BME280;6302;42.624;23.334;2024-03-22T01:03:18;93308.09;;;6.70;74.96
12475;BME280;6302;42.624;23.334;2024-03-22T01:05:45;93305.81;;;6.61;76.04
12475;BME280;6302;42.624;23.334;2024-03-22T01:08:12;93309.50;;;6.53;77.07
12475;BME280;6302;42.624;23.334;2024-03-22T01:10:40;93298.19;;;6.49;77.76
12475;BME280;6302;42.624;23.334;2024-03-22T01:13:06;93298.88;;;6.39;78.70
12475;BME280;6302;42.624;23.334;2024-03-22T01:15:32;93309.75;;;6.37;77.86
12475;BME280;6302;42.624;23.334;2024-03-22T01:17:59;93301.03;;;6.30;77.12
12475;BME280;6302;42.624;23.334;2024-03-22T01:20:25;93302.59;;;6.34;75.08
12475;BME280;6302;42.624;23.334;2024-03-22T01:22:51;93307.44;;;6.29;74.35
12475;BME280;6302;42.624;23.334;2024-03-22T01:25:17;93309.69;;;6.27;74.86
12475;BME280;6302;42.624;23.334;2024-03-22T01:27:45;93314.19;;;6.30;74.28
12475;BME280;6302;42.624;23.334;2024-03-22T01:30:11;93314.59;;;6.32;73.28
12475;BME280;6302;42.624;23.334;2024-03-22T01:32:38;93319.13;;;6.35;73.92
12475;BME280;6302;42.624;23.334;2024-03-22T01:35:04;93312.31;;;6.30;74.87
12475;BME280;6302;42.624;23.334;2024-03-22T01:37:32;93301.84;;;6.34;74.14
12475;BME280;6302;42.624;23.334;2024-03-22T01:39:58;93307.09;;;6.34;74.57
12475;BME280;6302;42.624;23.334;2024-03-22T01:42:24;93304.81;;;6.29;75.00
12475;BME280;6302;42.624;23.334;2024-03-22T01:44:52;93293.47;;;6.25;74.25
12475;BME280;6302;42.624;23.334;2024-03-22T01:47:18;93295.00;;;6.26;74.54
12475;BME280;6302;42.624;23.334;2024-03-22T01:49:44;93299.88;;;6.27;74.75
12475;BME280;6302;42.624;23.334;2024-03-22T01:52:11;93303.63;;;6.23;75.47
12475;BME280;6302;42.624;23.334;2024-03-22T01:54:36;93312.66;;;6.25;75.22
12475;BME280;6302;42.624;23.334;2024-03-22T01:57:03;93306.66;;;6.28;75.25
12475;BME280;6302;42.624;23.334;2024-03-22T01:59:30;93307.81;;;6.31;74.87
12475;BME280;6302;42.624;23.334;2024-03-22T02:01:58;93292.03;;;6.31;74.98
12475;BME280;6302;42.624;23.334;2024-03-22T02:04:23;93276.13;;;6.17;74.81
12475;BME280;6302;42.624;23.334;2024-03-22T02:06:50;93295.44;;;6.35;74.86
12475;BME280;6302;42.624;23.334;2024-03-22T02:09:16;93304.16;;;6.42;74.66
12475;BME280;6302;42.624;23.334;2024-03-22T02:11:43;93299.22;;;6.37;75.17
12475;BME280;6302;42.624;23.334;2024-03-22T02:14:09;93298.09;;;6.38;75.44
12475;BME280;6302;42.624;23.334;2024-03-22T02:16:36;93285.19;;;6.23;76.12
12475;BME280;6302;42.624;23.334;2024-03-22T02:19:03;93299.97;;;6.38;75.94
12475;BME280;6302;42.624;23.334;2024-03-22T02:21:29;93302.59;;;6.38;76.25
12475;BME280;6302;42.624;23.334;2024-03-22T02:23:56;93302.28;;;6.43;76.62
12475;BME280;6302;42.624;23.334;2024-03-22T02:26:23;93303.03;;;6.43;76.32
12475;BME280;6302;42.624;23.334;2024-03-22T02:28:49;93303.38;;;6.42;77.01
12475;BME280;6302;42.624;23.334;2024-03-22T02:31:16;93313.19;;;6.45;78.06
12475;BME280;6302;42.624;23.334;2024-03-22T02:33:41;93307.16;;;6.41;78.37
12475;BME280;6302;42.624;23.334;2024-03-22T02:36:08;93309.03;;;6.40;78.77
12475;BME280;6302;42.624;23.334;2024-03-22T02:38:34;93311.66;;;6.40;79.17
12475;BME280;6302;42.624;23.334;2024-03-22T02:41:02;93306.72;;;6.32;79.63
12475;BME280;6302;42.624;23.334;2024-03-22T02:43:28;93318.78;;;6.36;79.57
12475;BME280;6302;42.624;23.334;2024-03-22T02:45:55;93310.13;;;6.36;79.27
12475;BME280;6302;42.624;23.334;2024-03-22T02:48:20;93318.78;;;6.36;79.66
12475;BME280;6302;42.624;23.334;2024-03-22T02:50:47;93318.38;;;6.34;80.08
12475;BME280;6302;42.624;23.334;2024-03-22T02:53:13;93316.50;;;6.35;80.34
12475;BME280;6302;42.624;23.334;2024-03-22T02:55:40;93325.53;;;6.34;80.23
12475;BME280;6302;42.624;23.334;2024-03-22T02:58:07;93318.34;;;6.31;80.54
12475;BME280;6302;42.624;23.334;2024-03-22T03:00:35;93322.50;;;6.32;80.93
12475;BME280;6302;42.624;23.334;2024-03-22T03:03:01;93322.09;;;6.30;80.74
12475;BME280;6302;42.624;23.334;2024-03-22T03:05:29;93330.34;;;6.28;81.06
12475;BME280;6302;42.624;23.334;2024-03-22T03:07:55;93325.84;;;6.29;81.79
12475;BME280;6302;42.624;23.334;2024-03-22T03:10:22;93331.44;;;6.24;82.63
12475;BME280;6302;42.624;23.334;2024-03-22T03:12:48;93339.31;;;6.20;82.72
12475;BME280;6302;42.624;23.334;2024-03-22T03:15:17;93335.91;;;6.20;83.17
12475;BME280;6302;42.624;23.334;2024-03-22T03:17:43;93337.75;;;6.16;84.13
12475;BME280;6302;42.624;23.334;2024-03-22T03:20:11;93339.25;;;6.13;84.39
12475;BME280;6302;42.624;23.334;2024-03-22T03:22:39;93316.91;;;5.97;85.43
12475;BME280;6302;42.624;23.334;2024-03-22T03:25:06;93338.41;;;6.06;86.24
12475;BME280;6302;42.624;23.334;2024-03-22T03:27:32;93334.56;;;5.96;86.06
12475;BME280;6302;42.624;23.334;2024-03-22T03:29:59;93345.03;;;5.89;86.85
12475;BME280;6302;42.624;23.334;2024-03-22T03:32:26;93347.19;;;5.83;87.11
12475;BME280;6302;42.624;23.334;2024-03-22T03:34:53;93350.13;;;5.78;87.45
12475;BME280;6302;42.624;23.334;2024-03-22T03:37:19;93350.50;;;5.77;87.30
12475;BME280;6302;42.624;23.334;2024-03-22T03:39:46;93354.59;;;5.74;88.38
12475;BME280;6302;42.624;23.334;2024-03-22T03:42:11;93351.59;;;5.72;89.41
12475;BME280;6302;42.624;23.334;2024-03-22T03:44:38;93355.25;;;5.68;91.74
12475;BME280;6302;42.624;23.334;2024-03-22T03:47:04;93358.19;;;5.59;90.69
12475;BME280;6302;42.624;23.334;2024-03-22T03:49:32;93360.75;;;5.56;90.92
12475;BME280;6302;42.624;23.334;2024-03-22T03:51:58;93365.63;;;5.54;91.44
12475;BME280;6302;42.624;23.334;2024-03-22T03:54:25;93349.72;;;5.43;92.02
12475;BME280;6302;42.624;23.334;2024-03-22T03:56:50;93365.91;;;5.45;92.94
12475;BME280;6302;42.624;23.334;2024-03-22T03:59:17;93365.50;;;5.43;92.94
12475;BME280;6302;42.624;23.334;2024-03-22T04:01:44;93375.59;;;5.41;93.28
12475;BME280;6302;42.624;23.334;2024-03-22T04:04:12;93364.69;;;5.39;93.68
12475;BME280;6302;42.624;23.334;2024-03-22T04:06:39;93378.16;;;5.34;92.43
12475;BME280;6302;42.624;23.334;2024-03-22T04:09:06;93356.56;;;5.18;92.38
12475;BME280;6302;42.624;23.334;2024-03-22T04:11:32;93361.09;;;5.21;94.33
12475;BME280;6302;42.624;23.334;2024-03-22T04:13:59;93382.56;;;5.26;95.64
12475;BME280;6302;42.624;23.334;2024-03-22T04:16:25;93372.72;;;5.20;96.76
12475;BME280;6302;42.624;23.334;2024-03-22T04:18:51;93380.91;;;5.15;97.85
12475;BME280;6302;42.624;23.334;2024-03-22T04:21:18;93384.19;;;5.08;98.82
12475;BME280;6302;42.624;23.334;2024-03-22T04:23:45;93373.94;;;5.00;99.54
12475;BME280;6302;42.624;23.334;2024-03-22T04:26:12;93381.41;;;4.98;99.90
12475;BME280;6302;42.624;23.334;2024-03-22T04:28:37;93382.50;;;4.97;99.80
12475;BME280;6302;42.624;23.334;2024-03-22T04:31:05;93360.09;;;4.77;100.00
12475;BME280;6302;42.624;23.334;2024-03-22T04:33:32;93373.03;;;4.89;100.00
12475;BME280;6302;42.624;23.334;2024-03-22T04:35:59;93389.97;;;4.91;100.00
12475;BME280;6302;42.624;23.334;2024-03-22T04:38:26;93392.53;;;4.88;100.00
12475;BME280;6302;42.624;23.334;2024-03-22T04:40:55;93399.69;;;4.91;100.00
12475;BME280;6302;42.624;23.334;2024-03-22T04:43:22;93398.53;;;4.88;100.00
12475;BME280;6302;42.624;23.334;2024-03-22T04:45:50;93397.41;;;4.89;100.00
12475;BME280;6302;42.624;23.334;2024-03-22T04:48:17;93395.94;;;4.92;99.61
12475;BME280;6302;42.624;23.334;2024-03-22T04:50:45;93405.06;;;4.98;100.00
12475;BME280;6302;42.624;23.334;2024-03-22T04:53:11;93399.50;;;5.03;99.99
12475;BME280;6302;42.624;23.334;2024-03-22T04:55:37;93411.63;;;5.11;99.66
12475;BME280;6302;42.624;23.334;2024-03-22T04:58:05;93401.91;;;5.15;99.39
12475;BME280;6302;42.624;23.334;2024-03-22T05:00:32;93405.03;;;5.24;99.97
12475;BME280;6302;42.624;23.334;2024-03-22T05:02:57;93407.34;;;5.29;100.00
12475;BME280;6302;42.624;23.334;2024-03-22T05:05:24;93410.38;;;5.31;100.00
12475;BME280;6302;42.624;23.334;2024-03-22T05:07:50;93415.75;;;5.38;100.00
12475;BME280;6302;42.624;23.334;2024-03-22T05:10:16;93407.19;;;5.45;100.00
12475;BME280;6302;42.624;23.334;2024-03-22T05:12:42;93409.91;;;5.52;99.46
12475;BME280;6302;42.624;23.334;2024-03-22T05:15:10;93389.56;;;5.45;99.60
12475;BME280;6302;42.624;23.334;2024-03-22T05:17:36;93417.56;;;5.64;99.02
12475;BME280;6302;42.624;23.334;2024-03-22T05:20:05;93414.25;;;5.70;99.48
12475;BME280;6302;42.624;23.334;2024-03-22T05:22:33;93418.91;;;5.80;99.55
12475;BME280;6302;42.624;23.334;2024-03-22T05:25:00;93429.56;;;5.87;100.00
12475;BME280;6302;42.624;23.334;2024-03-22T05:27:26;93428.09;;;5.94;99.99
12475;BME280;6302;42.624;23.334;2024-03-22T05:29:53;93428.56;;;6.03;98.80
12475;BME280;6302;42.624;23.334;2024-03-22T05:32:20;93426.06;;;6.13;96.96
12475;BME280;6302;42.624;23.334;2024-03-22T05:34:46;93428.81;;;6.24;94.48
12475;BME280;6302;42.624;23.334;2024-03-22T05:37:12;93428.09;;;6.27;97.54
12475;BME280;6302;42.624;23.334;2024-03-22T05:39:39;93388.69;;;5.97;96.93
12475;BME280;6302;42.624;23.334;2024-03-22T05:42:06;93418.94;;;6.14;97.75
12475;BME280;6302;42.624;23.334;2024-03-22T05:44:33;93430.41;;;6.32;98.45
12475;BME280;6302;42.624;23.334;2024-03-22T05:46:58;93435.03;;;6.45;97.23
12475;BME280;6302;42.624;23.334;2024-03-22T05:49:27;93424.94;;;6.51;94.97
12475;BME280;6302;42.624;23.334;2024-03-22T05:51:52;93443.31;;;6.47;95.61
12475;BME280;6302;42.624;23.334;2024-03-22T05:54:19;93433.56;;;6.48;96.87
12475;BME280;6302;42.624;23.334;2024-03-22T05:56:45;93429.72;;;6.42;98.00
12475;BME280;6302;42.624;23.334;2024-03-22T05:59:12;93445.63;;;6.49;99.85
12475;BME280;6302;42.624;23.334;2024-03-22T06:01:38;93437.84;;;6.63;97.72
12475;BME280;6302;42.624;23.334;2024-03-22T06:04:05;93374.53;;;6.09;98.94
12475;BME280;6302;42.624;23.334;2024-03-22T06:06:32;93454.28;;;6.53;99.27
12475;BME280;6302;42.624;23.334;2024-03-22T06:08:59;93453.13;;;6.50;99.37
12475;BME280;6302;42.624;23.334;2024-03-22T06:11:29;93441.09;;;6.49;98.14
12475;BME280;6302;42.624;23.334;2024-03-22T06:13:56;93449.47;;;6.62;94.18
12475;BME280;6302;42.624;23.334;2024-03-22T06:16:22;93451.03;;;6.67;93.12
12475;BME280;6302;42.624;23.334;2024-03-22T06:18:49;93454.56;;;6.85;94.25
12475;BME280;6302;42.624;23.334;2024-03-22T06:21:15;93452.38;;;6.94;92.06
12475;BME280;6302;42.624;23.334;2024-03-22T06:23:48;93447.53;;;6.99;90.75
12475;BME280;6302;42.624;23.334;2024-03-22T06:26:14;93455.91;;;7.08;89.57
12475;BME280;6302;42.624;23.334;2024-03-22T06:28:41;93459.00;;;7.17;88.55
12475;BME280;6302;42.624;23.334;2024-03-22T06:31:07;93455.28;;;7.26;86.81
12475;BME280;6302;42.624;23.334;2024-03-22T06:33:33;93458.34;;;7.38;84.40
12475;BME280;6302;42.624;23.334;2024-03-22T06:35:59;93447.88;;;7.49;82.12
12475;BME280;6302;42.624;23.334;2024-03-22T06:38:26;93454.75;;;7.64;81.28
12475;BME280;6302;42.624;23.334;2024-03-22T06:40:53;93457.00;;;7.65;80.61
12475;BME280;6302;42.624;23.334;2024-03-22T06:43:20;93432.44;;;7.51;79.33
12475;BME280;6302;42.624;23.334;2024-03-22T06:45:45;93466.88;;;7.72;79.15
12475;BME280;6302;42.624;23.334;2024-03-22T06:48:13;93464.25;;;7.79;77.76
12475;BME280;6302;42.624;23.334;2024-03-22T06:50:40;93470.34;;;7.90;78.10
12475;BME280;6302;42.624;23.334;2024-03-22T06:53:07;93472.25;;;8.00;79.47
12475;BME280;6302;42.624;23.334;2024-03-22T06:55:35;93473.03;;;7.97;77.97
12475;BME280;6302;42.624;23.334;2024-03-22T06:58:03;93482.50;;;8.12;77.40
12475;BME280;6302;42.624;23.334;2024-03-22T07:00:29;93485.88;;;8.06;75.04
12475;BME280;6302;42.624;23.334;2024-03-22T07:02:59;93477.59;;;8.11;75.10
12475;BME280;6302;42.624;23.334;2024-03-22T07:05:27;93467.75;;;7.97;75.07
12475;BME280;6302;42.624;23.334;2024-03-22T07:07:54;93491.97;;;8.20;73.58
12475;BME280;6302;42.624;23.334;2024-03-22T07:10:23;93479.84;;;8.12;74.09
12475;BME280;6302;42.624;23.334;2024-03-22T07:12:53;93490.91;;;8.35;74.21
12475;BME280;6302;42.624;23.334;2024-03-22T07:15:21;93491.31;;;8.37;72.10
12475;BME280;6302;42.624;23.334;2024-03-22T07:17:47;93485.31;;;8.44;70.57
12475;BME280;6302;42.624;23.334;2024-03-22T07:20:13;93495.88;;;8.47;70.41
12475;BME280;6302;42.624;23.334;2024-03-22T07:22:40;93498.94;;;8.57;73.57
12475;BME280;6302;42.624;23.334;2024-03-22T07:25:06;93493.69;;;8.81;70.90
12475;BME280;6302;42.624;23.334;2024-03-22T07:27:34;93487.66;;;8.91;69.03
12475;BME280;6302;42.624;23.334;2024-03-22T07:30:00;93492.94;;;8.88;68.67
12475;BME280;6302;42.624;23.334;2024-03-22T07:32:28;93488.41;;;8.85;70.35
12475;BME280;6302;42.624;23.334;2024-03-22T07:34:54;93496.75;;;9.01;69.11
12475;BME280;6302;42.624;23.334;2024-03-22T07:37:21;93491.84;;;9.03;70.50
12475;BME280;6302;42.624;23.334;2024-03-22T07:39:47;93495.22;;;9.21;70.97
12475;BME280;6302;42.624;23.334;2024-03-22T07:42:14;93498.28;;;9.30;71.81
12475;BME280;6302;42.624;23.334;2024-03-22T07:44:40;93497.50;;;9.47;68.87
12475;BME280;6302;42.624;23.334;2024-03-22T07:47:06;93502.78;;;9.51;66.78
12475;BME280;6302;42.624;23.334;2024-03-22T07:49:33;93499.75;;;9.49;67.47
12475;BME280;6302;42.624;23.334;2024-03-22T07:52:02;93468.81;;;9.35;68.06
12475;BME280;6302;42.624;23.334;2024-03-22T07:54:28;93497.88;;;9.67;69.46
12475;BME280;6302;42.624;23.334;2024-03-22T07:56:54;93503.53;;;9.65;68.75
12475;BME280;6302;42.624;23.334;2024-03-22T07:59:20;93506.16;;;9.79;68.57
12475;BME280;6302;42.624;23.334;2024-03-22T08:01:47;93501.22;;;9.85;66.35
12475;BME280;6302;42.624;23.334;2024-03-22T08:04:13;93497.06;;;9.88;66.66
12475;BME280;6302;42.624;23.334;2024-03-22T08:06:41;93514.06;;;10.01;67.59
12475;BME280;6302;42.624;23.334;2024-03-22T08:09:07;93506.50;;;9.99;65.38
12475;BME280;6302;42.624;23.334;2024-03-22T08:11:34;93517.47;;;10.05;66.17
12475;BME280;6302;42.624;23.334;2024-03-22T08:14:00;93506.50;;;10.17;64.42
12475;BME280;6302;42.624;23.334;2024-03-22T08:16:28;93490.56;;;10.10;63.65
12475;BME280;6302;42.624;23.334;2024-03-22T08:18:54;93509.50;;;10.19;63.49
12475;BME280;6302;42.624;23.334;2024-03-22T08:21:22;93509.47;;;10.26;63.13
12475;BME280;6302;42.624;23.334;2024-03-22T08:23:49;93503.78;;;10.27;64.22
12475;BME280;6302;42.624;23.334;2024-03-22T08:26:16;93492.41;;;10.37;64.66
12475;BME280;6302;42.624;23.334;2024-03-22T08:28:42;93496.50;;;10.53;64.99
12475;BME280;6302;42.624;23.334;2024-03-22T08:31:08;93507.81;;;10.64;62.07
12475;BME280;6302;42.624;23.334;2024-03-22T08:33:34;93494.16;;;10.69;60.94
12475;BME280;6302;42.624;23.334;2024-03-22T08:36:01;93498.63;;;10.82;59.42
12475;BME280;6302;42.624;23.334;2024-03-22T08:38:27;93499.38;;;10.79;58.24
12475;BME280;6302;42.624;23.334;2024-03-22T08:40:55;93499.78;;;10.74;57.89
12475;BME280;6302;42.624;23.334;2024-03-22T08:43:21;93494.09;;;10.79;59.15
12475;BME280;6302;42.624;23.334;2024-03-22T08:45:51;93498.53;;;10.96;59.83
12475;BME280;6302;42.624;23.334;2024-03-22T08:48:17;93496.16;;;11.09;59.65
12475;BME280;6302;42.624;23.334;2024-03-22T08:50:44;93493.91;;;11.07;55.67
12475;BME280;6302;42.624;23.334;2024-03-22T08:53:09;93502.34;;;10.95;55.74
12475;BME280;6302;42.624;23.334;2024-03-22T08:55:36;93505.38;;;10.90;54.42
12475;BME280;6302;42.624;23.334;2024-03-22T08:58:03;93495.72;;;10.56;54.17
12475;BME280;6302;42.624;23.334;2024-03-22T09:00:30;93504.75;;;10.65;54.73
12475;BME280;6302;42.624;23.334;2024-03-22T09:02:56;93505.59;;;10.52;54.37
12475;BME280;6302;42.624;23.334;2024-03-22T09:05:23;93503.38;;;10.36;55.09
12475;BME280;6302;42.624;23.334;2024-03-22T09:07:48;93457.66;;;10.18;55.53
12475;BME280;6302;42.624;23.334;2024-03-22T09:10:15;93507.06;;;10.63;54.34
12475;BME280;6302;42.624;23.334;2024-03-22T09:12:41;93508.50;;;10.75;54.14
12475;BME280;6302;42.624;23.334;2024-03-22T09:15:09;93505.44;;;10.80;53.32
12475;BME280;6302;42.624;23.334;2024-03-22T09:17:35;93491.72;;;10.95;53.64
12475;BME280;6302;42.624;23.334;2024-03-22T09:20:02;93494.72;;;11.01;53.78
12475;BME280;6302;42.624;23.334;2024-03-22T09:22:29;93487.91;;;11.03;51.98
12475;BME280;6302;42.624;23.334;2024-03-22T09:24:57;93498.50;;;11.00;52.77
12475;BME280;6302;42.624;23.334;2024-03-22T09:27:23;93494.28;;;11.06;53.59
12475;BME280;6302;42.624;23.334;2024-03-22T09:29:50;93463.69;;;10.94;53.13
12475;BME280;6302;42.624;23.334;2024-03-22T09:32:17;93487.72;;;11.25;52.97
12475;BME280;6302;42.624;23.334;2024-03-22T09:34:44;93468.06;;;11.19;52.00
12475;BME280;6302;42.624;23.334;2024-03-22T09:37:11;93469.41;;;11.41;51.73
12475;BME280;6302;42.624;23.334;2024-03-22T09:39:37;93466.94;;;11.64;53.31
12475;BME280;6302;42.624;23.334;2024-03-22T09:42:06;93465.25;;;11.84;52.78
12475;BME280;6302;42.624;23.334;2024-03-22T09:44:32;93421.22;;;11.87;53.51
12475;BME280;6302;42.624;23.334;2024-03-22T09:47:00;93447.81;;;11.83;49.13
12475;BME280;6302;42.624;23.334;2024-03-22T09:49:27;93479.53;;;11.97;49.91
12475;BME280;6302;42.624;23.334;2024-03-22T09:51:54;93461.50;;;11.78;50.45
12475;BME280;6302;42.624;23.334;2024-03-22T09:54:22;93477.63;;;11.98;48.95
12475;BME280;6302;42.624;23.334;2024-03-22T09:56:50;93476.41;;;12.06;47.65
12475;BME280;6302;42.624;23.334;2024-03-22T09:59:16;93474.94;;;12.01;48.50
12475;BME280;6302;42.624;23.334;2024-03-22T10:01:44;93460.34;;;12.16;49.34
12475;BME280;6302;42.624;23.334;2024-03-22T10:04:11;93469.06;;;12.51;49.30
12475;BME280;6302;42.624;23.334;2024-03-22T10:06:39;93467.38;;;12.64;46.03
12475;BME280;6302;42.624;23.334;2024-03-22T10:09:05;93462.50;;;12.28;44.84
12475;BME280;6302;42.624;23.334;2024-03-22T10:11:34;93395.13;;;11.78;46.30
12475;BME280;6302;42.624;23.334;2024-03-22T10:14:00;93470.94;;;12.20;45.71
12475;BME280;6302;42.624;23.334;2024-03-22T10:16:33;93466.97;;;12.35;47.88
12475;BME280;6302;42.624;23.334;2024-03-22T10:18:59;93462.91;;;12.27;46.25
12475;BME280;6302;42.624;23.334;2024-03-22T10:21:26;93456.81;;;12.26;46.19
12475;BME280;6302;42.624;23.334;2024-03-22T10:23:54;93464.53;;;12.48;46.69
12475;BME280;6302;42.624;23.334;2024-03-22T10:26:21;93462.59;;;12.52;46.78
12475;BME280;6302;42.624;23.334;2024-03-22T10:28:47;93434.56;;;12.13;46.46
12475;BME280;6302;42.624;23.334;2024-03-22T10:31:14;93427.03;;;12.08;46.51
12475;BME280;6302;42.624;23.334;2024-03-22T10:33:41;93447.34;;;12.56;46.04
12475;BME280;6302;42.624;23.334;2024-03-22T10:36:08;93454.47;;;12.62;45.62
12475;BME280;6302;42.624;23.334;2024-03-22T10:38:36;93426.56;;;12.47;46.45
12475;BME280;6302;42.624;23.334;2024-03-22T10:41:06;93444.56;;;12.66;47.62
12475;BME280;6302;42.624;23.334;2024-03-22T10:43:32;93458.31;;;12.58;48.26
12475;BME280;6302;42.624;23.334;2024-03-22T10:46:01;93451.97;;;12.52;43.98
12475;BME280;6302;42.624;23.334;2024-03-22T10:48:30;93412.88;;;12.18;45.34
12475;BME280;6302;42.624;23.334;2024-03-22T10:51:00;93430.16;;;12.64;45.86
12475;BME280;6302;42.624;23.334;2024-03-22T10:53:27;93431.44;;;12.79;45.83
12475;BME280;6302;42.624;23.334;2024-03-22T10:55:56;93421.41;;;12.90;45.84
12475;BME280;6302;42.624;23.334;2024-03-22T10:58:26;93413.44;;;12.90;44.97
12475;BME280;6302;42.624;23.334;2024-03-22T11:00:54;93418.59;;;13.27;47.55
12475;BME280;6302;42.624;23.334;2024-03-22T11:03:20;93421.47;;;13.59;45.79
12475;BME280;6302;42.624;23.334;2024-03-22T11:05:49;93420.38;;;14.00;47.12
12475;BME280;6302;42.624;23.334;2024-03-22T11:08:23;93402.38;;;14.04;42.74
12475;BME280;6302;42.624;23.334;2024-03-22T11:10:50;93415.72;;;14.04;42.78
12475;BME280;6302;42.624;23.334;2024-03-22T11:13:16;93417.00;;;13.96;43.19
12475;BME280;6302;42.624;23.334;2024-03-22T11:15:47;93407.28;;;13.66;42.39
12475;BME280;6302;42.624;23.334;2024-03-22T11:18:14;93413.03;;;13.41;42.11
12475;BME280;6302;42.624;23.334;2024-03-22T11:20:42;93414.19;;;13.40;43.13
12475;BME280;6302;42.624;23.334;2024-03-22T11:23:07;93405.03;;;13.64;43.70
12475;BME280;6302;42.624;23.334;2024-03-22T11:25:35;93401.31;;;13.58;43.77
12475;BME280;6302;42.624;23.334;2024-03-22T11:28:02;93386.66;;;13.27;42.51
12475;BME280;6302;42.624;23.334;2024-03-22T11:30:29;93403.41;;;13.24;44.02
12475;BME280;6302;42.624;23.334;2024-03-22T11:32:56;93406.75;;;13.28;43.01
12475;BME280;6302;42.624;23.334;2024-03-22T11:35:23;93401.38;;;13.09;43.39
12475;BME280;6302;42.624;23.334;2024-03-22T11:37:50;93393.78;;;13.11;44.51
12475;BME280;6302;42.624;23.334;2024-03-22T11:40:17;93395.19;;;13.38;43.21
12475;BME280;6302;42.624;23.334;2024-03-22T11:42:47;93389.66;;;13.52;44.54
12475;BME280;6302;42.624;23.334;2024-03-22T11:45:17;93381.56;;;13.56;41.95
12475;BME280;6302;42.624;23.334;2024-03-22T11:47:44;93384.19;;;13.59;41.96
12475;BME280;6302;42.624;23.334;2024-03-22T11:50:12;93379.28;;;13.78;41.97
12475;BME280;6302;42.624;23.334;2024-03-22T11:52:40;93378.06;;;13.82;39.14
12475;BME280;6302;42.624;23.334;2024-03-22T11:55:07;93371.69;;;13.96;39.71
12475;BME280;6302;42.624;23.334;2024-03-22T11:57:33;93371.69;;;14.15;41.03
12475;BME280;6302;42.624;23.334;2024-03-22T12:00:00;93367.72;;;14.23;40.53
12475;BME280;6302;42.624;23.334;2024-03-22T12:02:26;93363.31;;;14.17;42.52
12475;BME280;6302;42.624;23.334;2024-03-22T12:04:53;93320.59;;;14.01;42.59
12475;BME280;6302;42.624;23.334;2024-03-22T12:07:20;93353.84;;;14.32;42.08
12475;BME280;6302;42.624;23.334;2024-03-22T12:09:47;93360.63;;;14.17;40.10
12475;BME280;6302;42.624;23.334;2024-03-22T12:12:13;93359.13;;;13.77;41.63
12475;BME280;6302;42.624;23.334;2024-03-22T12:14:40;93348.19;;;13.51;41.45
12475;BME280;6302;42.624;23.334;2024-03-22T12:17:06;93351.75;;;13.64;41.01
12475;BME280;6302;42.624;23.334;2024-03-22T12:19:33;93353.25;;;13.65;41.17
12475;BME280;6302;42.624;23.334;2024-03-22T12:21:59;93317.28;;;13.57;41.90
12475;BME280;6302;42.624;23.334;2024-03-22T12:24:28;93342.53;;;14.08;40.40
12475;BME280;6302;42.624;23.334;2024-03-22T12:26:53;93333.41;;;14.25;40.62
12475;BME280;6302;42.624;23.334;2024-03-22T12:29:20;93338.66;;;14.49;39.51
12475;BME280;6302;42.624;23.334;2024-03-22T12:31:46;93333.38;;;14.45;39.34
12475;BME280;6302;42.624;23.334;2024-03-22T12:34:13;93289.28;;;14.24;38.95
12475;BME280;6302;42.624;23.334;2024-03-22T12:36:39;93331.19;;;14.04;38.92
12475;BME280;6302;42.624;23.334;2024-03-22T12:39:06;93317.91;;;14.20;39.08
12475;BME280;6302;42.624;23.334;2024-03-22T12:41:33;93329.97;;;14.25;39.34
12475;BME280;6302;42.624;23.334;2024-03-22T12:44:00;93321.56;;;14.62;39.15
12475;BME280;6302;42.624;23.334;2024-03-22T12:46:26;93321.94;;;14.80;40.11
12475;BME280;6302;42.624;23.334;2024-03-22T12:48:54;93319.41;;;14.89;38.92
12475;BME280;6302;42.624;23.334;2024-03-22T12:51:19;93316.94;;;14.66;38.64
12475;BME280;6302;42.624;23.334;2024-03-22T12:53:46;93324.34;;;14.59;40.06
12475;BME280;6302;42.624;23.334;2024-03-22T12:56:15;93316.75;;;14.73;39.81
12475;BME280;6302;42.624;23.334;2024-03-22T12:58:42;93319.34;;;14.93;38.66
12475;BME280;6302;42.624;23.334;2024-03-22T13:01:09;93306.91;;;15.03;36.42
12475;BME280;6302;42.624;23.334;2024-03-22T13:03:36;93304.41;;;14.79;37.47
12475;BME280;6302;42.624;23.334;2024-03-22T13:06:03;93306.34;;;14.47;38.13